Alton, Kansas
Current Conditions -  °F | °C
As of 9:53 AM on Friday 31 Oct 2014 (Local Time) from KRSL Reporting Station
Clear Clear  
Wind Chill: 22°   Ceiling: Unl
Heat Index: 33°   Visibility: 10mi
Dew Point: 23°   Wind: 17mph
Humidity: 66%   Direction: 30°NNE
Pressure: 30.55"   Gusts: 29mph
Location:  39.47°N, 98.95°W
Report Text: KRSL 311453Z AUTO 03015G25KT 10SM CLR 01/M05 A3055 RMK AO2 SLP356 T00061050 51021
Loading
Personal Weather Stations






























Interactive Weather Map
Tropical Storm Tracking
New forecast layout! Learn more

10-Day Weather Forecast

Advertisements
Track Severe Weather on mobile